createdAt,value
2018-04-19T00:00:31.441Z,1030.41
2018-04-19T00:01:31.444Z,1030.4
2018-04-19T00:02:31.435Z,1030.4
2018-04-19T00:03:31.455Z,1030.43
2018-04-19T00:04:31.437Z,1030.38
2018-04-19T00:05:31.445Z,1030.38
2018-04-19T00:06:31.438Z,1030.38
2018-04-19T00:07:31.442Z,1030.37
2018-04-19T00:08:31.451Z,1030.37
2018-04-19T00:09:31.428Z,1030.37
2018-04-19T00:10:31.593Z,1030.36
2018-04-19T00:11:31.428Z,1030.39
2018-04-19T00:12:31.432Z,1030.4
2018-04-19T00:13:31.428Z,1030.38
2018-04-19T00:14:31.440Z,1030.32
2018-04-19T00:15:31.467Z,1030.35
2018-04-19T00:16:31.430Z,1030.32
2018-04-19T00:17:31.445Z,1030.3
2018-04-19T00:18:31.462Z,1030.33
2018-04-19T00:19:31.426Z,1030.33
2018-04-19T00:20:31.446Z,1030.3
2018-04-19T00:21:31.473Z,1030.29
2018-04-19T00:22:31.542Z,1030.29
2018-04-19T00:23:31.446Z,1030.3
2018-04-19T00:24:31.434Z,1030.27
2018-04-19T00:25:31.429Z,1030.26
2018-04-19T00:26:31.430Z,1030.26
2018-04-19T00:27:31.426Z,1030.3
2018-04-19T00:28:31.434Z,1030.33
2018-04-19T00:29:31.458Z,1030.31
2018-04-19T00:30:31.419Z,1030.3
2018-04-19T00:31:31.442Z,1030.32
2018-04-19T00:32:31.446Z,1030.36
2018-04-19T00:33:31.445Z,1030.35
2018-04-19T00:34:31.492Z,1030.31
2018-04-19T00:35:31.441Z,1030.35
2018-04-19T00:36:31.437Z,1030.31
2018-04-19T00:37:31.430Z,1030.31
2018-04-19T00:38:31.497Z,1030.32
2018-04-19T00:39:31.423Z,1030.31
2018-04-19T00:40:31.520Z,1030.35
2018-04-19T00:41:31.427Z,1030.36
2018-04-19T00:42:31.419Z,1030.34
2018-04-19T00:43:31.432Z,1030.32
2018-04-19T00:44:31.421Z,1030.33
2018-04-19T00:45:31.427Z,1030.28
2018-04-19T00:46:31.513Z,1030.28
2018-04-19T00:47:31.424Z,1030.24
2018-04-19T00:48:31.435Z,1030.27
2018-04-19T00:49:31.453Z,1030.25
2018-04-19T00:50:31.418Z,1030.25
2018-04-19T00:51:31.434Z,1030.21
2018-04-19T00:52:31.418Z,1030.21
2018-04-19T00:53:31.417Z,1030.21
2018-04-19T00:54:31.418Z,1030.26
2018-04-19T00:55:31.414Z,1030.22
2018-04-19T00:56:31.444Z,1030.19
2018-04-19T00:57:31.416Z,1030.21
2018-04-19T00:58:31.458Z,1030.22
2018-04-19T00:59:31.427Z,1030.2
2018-04-19T01:00:31.428Z,1030.21
2018-04-19T01:01:31.460Z,1030.25
2018-04-19T01:02:31.466Z,1030.2
2018-04-19T01:03:31.416Z,1030.21
2018-04-19T01:04:31.424Z,1030.21
2018-04-19T01:05:31.410Z,1030.23
2018-04-19T01:06:31.424Z,1030.15
2018-04-19T01:07:31.417Z,1030.16
2018-04-19T01:08:31.425Z,1030.14
2018-04-19T01:09:31.433Z,1030.17
2018-04-19T01:10:31.405Z,1030.15
2018-04-19T01:11:31.446Z,1030.13
2018-04-19T01:12:31.413Z,1030.12
2018-04-19T01:13:31.422Z,1030.16
2018-04-19T01:14:31.435Z,1030.11
2018-04-19T01:15:31.414Z,1030.14
2018-04-19T01:16:31.425Z,1030.12
2018-04-19T01:17:31.399Z,1030.11
2018-04-19T01:18:31.409Z,1030.13
2018-04-19T01:19:31.413Z,1030.13
2018-04-19T01:20:31.404Z,1030.13
2018-04-19T01:21:31.453Z,1030.15
2018-04-19T01:22:31.401Z,1030.11
2018-04-19T01:23:31.406Z,1030.14
2018-04-19T01:24:31.421Z,1030.13
2018-04-19T01:25:31.392Z,1030.13
2018-04-19T01:26:31.420Z,1030.15
2018-04-19T01:27:31.392Z,1030.12
2018-04-19T01:28:31.721Z,1030.13
2018-04-19T01:29:31.424Z,1030.15
2018-04-19T01:30:31.394Z,1030.11
2018-04-19T01:31:31.478Z,1030.12
2018-04-19T01:32:31.478Z,1030.11
2018-04-19T01:33:31.405Z,1030.09
2018-04-19T01:34:31.397Z,1030.07
2018-04-19T01:35:31.404Z,1030.09
2018-04-19T01:36:31.586Z,1030.16
2018-04-19T01:37:31.399Z,1030.13
2018-04-19T01:38:31.530Z,1030.14
2018-04-19T01:39:31.403Z,1030.1
2018-04-19T01:40:31.387Z,1030.12
2018-04-19T01:41:31.388Z,1030.14
2018-04-19T01:42:31.444Z,1030.18
2018-04-19T01:43:31.439Z,1030.16
2018-04-19T01:44:31.443Z,1030.15
2018-04-19T01:45:31.406Z,1030.17
2018-04-19T01:46:31.418Z,1030.14
2018-04-19T01:47:31.409Z,1030.18
2018-04-19T01:48:31.396Z,1030.15
2018-04-19T01:49:31.427Z,1030.13
2018-04-19T01:50:31.422Z,1030.18
2018-04-19T01:51:31.418Z,1030.16
2018-04-19T01:52:31.389Z,1030.14
2018-04-19T01:53:31.402Z,1030.15
2018-04-19T01:54:31.439Z,1030.17
2018-04-19T01:55:31.531Z,1030.19
2018-04-19T01:56:31.411Z,1030.21
2018-04-19T01:57:31.407Z,1030.23
2018-04-19T01:58:31.433Z,1030.21
2018-04-19T01:59:31.402Z,1030.24
2018-04-19T02:00:31.419Z,1030.19
2018-04-19T02:01:31.404Z,1030.26
2018-04-19T02:02:31.373Z,1030.28
2018-04-19T02:03:31.379Z,1030.2
2018-04-19T02:04:31.427Z,1030.24
2018-04-19T02:05:31.437Z,1030.24
2018-04-19T02:06:31.409Z,1030.24
2018-04-19T02:07:31.381Z,1030.26
2018-04-19T02:08:31.401Z,1030.24
2018-04-19T02:09:31.383Z,1030.25
2018-04-19T02:10:31.381Z,1030.22
2018-04-19T02:11:31.405Z,1030.24
2018-04-19T02:12:31.384Z,1030.23
2018-04-19T02:13:31.387Z,1030.24
2018-04-19T02:14:31.391Z,1030.23
2018-04-19T02:15:31.374Z,1030.26
2018-04-19T02:16:31.403Z,1030.26
2018-04-19T02:17:31.370Z,1030.24
2018-04-19T02:18:31.378Z,1030.23
2018-04-19T02:19:31.384Z,1030.19
2018-04-19T02:20:31.379Z,1030.18
2018-04-19T02:21:31.398Z,1030.2
2018-04-19T02:22:31.545Z,1030.19
2018-04-19T02:23:31.367Z,1030.16
2018-04-19T02:24:31.383Z,1030.14
2018-04-19T02:25:31.382Z,1030.15
2018-04-19T02:26:31.404Z,1030.18
2018-04-19T02:27:31.417Z,1030.13
2018-04-19T02:28:31.405Z,1030.15
2018-04-19T02:29:31.396Z,1030.11
2018-04-19T02:30:31.392Z,1030.12
2018-04-19T02:31:31.396Z,1030.13
2018-04-19T02:32:31.371Z,1030.09
2018-04-19T02:33:31.379Z,1030.14
2018-04-19T02:34:31.376Z,1030.12
2018-04-19T02:35:31.443Z,1030.11
2018-04-19T02:36:31.391Z,1030.13
2018-04-19T02:37:31.386Z,1030.07
2018-04-19T02:38:31.508Z,1030.09
2018-04-19T02:39:31.370Z,1030.1
2018-04-19T02:40:31.386Z,1030.06
2018-04-19T02:41:31.463Z,1030.09
2018-04-19T02:42:31.367Z,1030.07
2018-04-19T02:43:31.437Z,1030.13
2018-04-19T02:44:31.370Z,1030.13
2018-04-19T02:45:31.365Z,1030.12
2018-04-19T02:46:31.611Z,1030.13
2018-04-19T02:47:31.370Z,1030.11
2018-04-19T02:48:31.375Z,1030.11
2018-04-19T02:49:31.365Z,1030.14
2018-04-19T02:50:31.501Z,1030.09
2018-04-19T02:51:31.385Z,1030.08
2018-04-19T02:52:31.529Z,1030.1
2018-04-19T02:53:31.400Z,1030.09
2018-04-19T02:54:31.385Z,1030.06
2018-04-19T02:55:31.514Z,1030.11
2018-04-19T02:56:31.373Z,1030.05
2018-04-19T02:57:31.359Z,1030.07
2018-04-19T02:58:31.376Z,1030.06
2018-04-19T02:59:31.359Z,1030.07
2018-04-19T03:00:31.345Z,1030.05
2018-04-19T03:01:31.361Z,1030
2018-04-19T03:02:31.359Z,1030.03
2018-04-19T03:03:31.491Z,1030.04
2018-04-19T03:04:31.392Z,1030.07
2018-04-19T03:05:31.387Z,1030.07
2018-04-19T03:06:31.382Z,1030.08
2018-04-19T03:07:31.368Z,1030.03
2018-04-19T03:08:31.540Z,1030.04
2018-04-19T03:09:31.371Z,1030.12
2018-04-19T03:10:31.371Z,1030.04
2018-04-19T03:11:31.405Z,1030.05
2018-04-19T03:12:31.477Z,1030.05
2018-04-19T03:13:31.373Z,1030.03
2018-04-19T03:14:31.404Z,1030.05
2018-04-19T03:15:31.379Z,1030.02
2018-04-19T03:16:31.350Z,1030.01
2018-04-19T03:17:31.470Z,1030.04
2018-04-19T03:18:31.387Z,1030.05
2018-04-19T03:19:31.372Z,1030.05
2018-04-19T03:20:31.423Z,1030.05
2018-04-19T03:21:31.350Z,1030.03
2018-04-19T03:22:31.354Z,1030.06
2018-04-19T03:23:31.365Z,1030.03
2018-04-19T03:24:31.344Z,1030.08
2018-04-19T03:25:31.348Z,1030.05
2018-04-19T03:26:31.338Z,1030.07
2018-04-19T03:27:31.334Z,1030.06
2018-04-19T03:28:31.361Z,1030.02
2018-04-19T03:29:31.350Z,1030.02
2018-04-19T03:30:31.353Z,1030.08
2018-04-19T03:31:31.362Z,1030.04
2018-04-19T03:32:31.396Z,1030.05
2018-04-19T03:33:31.341Z,1030.03
2018-04-19T03:34:31.343Z,1030.05
2018-04-19T03:35:31.428Z,1030.02
2018-04-19T03:36:31.344Z,1030.01
2018-04-19T03:37:31.335Z,1030.01
2018-04-19T03:38:31.354Z,1030.03
2018-04-19T03:39:31.341Z,1030.06
2018-04-19T03:40:31.346Z,1030.03
2018-04-19T03:41:31.336Z,1030.02
2018-04-19T03:42:31.348Z,1029.97
2018-04-19T03:43:31.364Z,1030.03
2018-04-19T03:44:31.481Z,1030.03
2018-04-19T03:45:31.335Z,1030
2018-04-19T03:46:31.347Z,1030.02
2018-04-19T03:47:31.333Z,1030.05
2018-04-19T03:48:31.397Z,1030.02
2018-04-19T03:49:31.379Z,1030.01
2018-04-19T03:50:31.339Z,1030
2018-04-19T03:51:31.342Z,1030.03
2018-04-19T03:52:31.342Z,1030.03
2018-04-19T03:53:31.335Z,1030.01
2018-04-19T03:54:31.356Z,1030.03
2018-04-19T03:55:31.329Z,1030.04
2018-04-19T03:56:31.338Z,1029.99
2018-04-19T03:57:31.536Z,1030.01
2018-04-19T03:58:31.343Z,1029.99
2018-04-19T03:59:31.379Z,1030.02
2018-04-19T04:00:31.340Z,1029.99
2018-04-19T04:01:31.448Z,1030.02
2018-04-19T04:02:31.333Z,1030
2018-04-19T04:03:31.343Z,1030.04
2018-04-19T04:04:31.359Z,1029.99
2018-04-19T04:05:31.332Z,1030.03
2018-04-19T04:06:31.334Z,1030
2018-04-19T04:07:31.317Z,1030.02
2018-04-19T04:08:31.468Z,1029.98
2018-04-19T04:09:31.383Z,1029.99
2018-04-19T04:10:31.332Z,1030
2018-04-19T04:11:31.326Z,1030
2018-04-19T04:12:31.331Z,1030.02
2018-04-19T04:13:31.452Z,1030.02
2018-04-19T04:14:31.353Z,1030.06
2018-04-19T04:15:31.328Z,1030.02
2018-04-19T04:16:31.556Z,1029.99
2018-04-19T04:17:31.338Z,1029.98
2018-04-19T04:18:31.325Z,1029.97
2018-04-19T04:19:31.469Z,1029.99
2018-04-19T04:20:31.317Z,1030
2018-04-19T04:21:31.314Z,1029.96
2018-04-19T04:22:31.338Z,1029.95
2018-04-19T04:23:31.335Z,1030
2018-04-19T04:24:31.331Z,1029.98
2018-04-19T04:25:31.319Z,1029.98
2018-04-19T04:26:31.309Z,1029.98
2018-04-19T04:27:31.331Z,1029.94
2018-04-19T04:28:31.327Z,1029.96
2018-04-19T04:29:31.311Z,1030.02
2018-04-19T04:30:31.321Z,1029.99
2018-04-19T04:31:31.304Z,1030
2018-04-19T04:32:31.319Z,1030.01
2018-04-19T04:33:31.312Z,1030.01
2018-04-19T04:34:31.326Z,1030.05
2018-04-19T04:35:31.312Z,1030.04
2018-04-19T04:36:31.338Z,1030.01
2018-04-19T04:37:31.313Z,1030.04
2018-04-19T04:38:31.347Z,1030.03
2018-04-19T04:39:31.318Z,1030.02
2018-04-19T04:40:31.317Z,1030.02
2018-04-19T04:41:31.363Z,1030.04
2018-04-19T04:42:31.320Z,1030.09
2018-04-19T04:43:31.317Z,1030.06
2018-04-19T04:44:31.336Z,1030.09
2018-04-19T04:45:31.353Z,1030.07
2018-04-19T04:46:31.335Z,1030.06
2018-04-19T04:47:31.312Z,1030.12
2018-04-19T04:48:31.309Z,1030.13
2018-04-19T04:49:31.306Z,1030.1
2018-04-19T04:50:31.336Z,1030.15
2018-04-19T04:51:31.293Z,1030.13
2018-04-19T04:52:31.315Z,1030.14
2018-04-19T04:53:31.303Z,1030.09
2018-04-19T04:54:31.296Z,1030.06
2018-04-19T04:55:31.434Z,1030.1
2018-04-19T04:56:31.299Z,1030.1
2018-04-19T04:57:31.378Z,1030.13
2018-04-19T04:58:31.312Z,1030.1
2018-04-19T04:59:31.335Z,1030.13
2018-04-19T05:00:31.298Z,1030.11
2018-04-19T05:01:31.334Z,1030.14
2018-04-19T05:02:31.287Z,1030.17
2018-04-19T05:03:31.312Z,1030.18
2018-04-19T05:04:31.310Z,1030.2
2018-04-19T05:05:31.302Z,1030.16
2018-04-19T05:06:31.362Z,1030.18
2018-04-19T05:07:31.314Z,1030.18
2018-04-19T05:08:31.332Z,1030.21
2018-04-19T05:09:31.322Z,1030.26
2018-04-19T05:10:31.319Z,1030.19
2018-04-19T05:11:31.336Z,1030.21
2018-04-19T05:12:31.303Z,1030.2
2018-04-19T05:13:31.300Z,1030.23
2018-04-19T05:14:31.441Z,1030.25
2018-04-19T05:15:31.303Z,1030.3
2018-04-19T05:16:31.335Z,1030.28
2018-04-19T05:17:31.300Z,1030.29
2018-04-19T05:18:31.287Z,1030.32
2018-04-19T05:19:31.307Z,1030.32
2018-04-19T05:20:31.287Z,1030.32
2018-04-19T05:21:31.332Z,1030.33
2018-04-19T05:22:31.292Z,1030.31
2018-04-19T05:23:31.293Z,1030.32
2018-04-19T05:24:31.307Z,1030.3
2018-04-19T05:25:31.279Z,1030.3
2018-04-19T05:26:31.420Z,1030.33
2018-04-19T05:27:31.285Z,1030.32
2018-04-19T05:28:31.282Z,1030.31
2018-04-19T05:29:31.283Z,1030.33
2018-04-19T05:30:31.284Z,1030.33
2018-04-19T05:31:31.298Z,1030.34
2018-04-19T05:32:31.302Z,1030.37
2018-04-19T05:33:31.283Z,1030.34
2018-04-19T05:34:31.280Z,1030.39
2018-04-19T05:35:31.281Z,1030.39
2018-04-19T05:36:31.299Z,1030.4
2018-04-19T05:37:31.280Z,1030.36
2018-04-19T05:38:31.299Z,1030.43
2018-04-19T05:39:31.268Z,1030.4
2018-04-19T05:40:31.276Z,1030.38
2018-04-19T05:41:31.438Z,1030.34
2018-04-19T05:42:31.286Z,1030.38
2018-04-19T05:43:31.282Z,1030.38
2018-04-19T05:44:31.274Z,1030.39
2018-04-19T05:45:31.277Z,1030.4
2018-04-19T05:46:31.303Z,1030.41
2018-04-19T05:47:31.268Z,1030.37
2018-04-19T05:48:31.276Z,1030.4
2018-04-19T05:49:31.284Z,1030.38
2018-04-19T05:50:31.275Z,1030.43
2018-04-19T05:51:31.264Z,1030.4
2018-04-19T05:52:31.262Z,1030.43
2018-04-19T05:53:31.268Z,1030.46
2018-04-19T05:54:31.553Z,1030.45
2018-04-19T05:55:31.259Z,1030.48
2018-04-19T05:56:31.294Z,1030.48
2018-04-19T05:57:31.301Z,1030.46
2018-04-19T05:58:31.292Z,1030.48
2018-04-19T05:59:31.280Z,1030.5
2018-04-19T06:00:31.291Z,1030.52
2018-04-19T06:01:31.276Z,1030.52
2018-04-19T06:02:31.273Z,1030.48
2018-04-19T06:03:31.384Z,1030.49
2018-04-19T06:04:31.270Z,1030.52
2018-04-19T06:05:31.279Z,1030.52
2018-04-19T06:06:31.330Z,1030.52
2018-04-19T06:07:31.344Z,1030.51
2018-04-19T06:08:31.284Z,1030.5
2018-04-19T06:09:31.268Z,1030.49
2018-04-19T06:10:31.265Z,1030.51
2018-04-19T06:11:31.275Z,1030.5
2018-04-19T06:12:31.289Z,1030.54
2018-04-19T06:13:31.265Z,1030.54
2018-04-19T06:14:31.333Z,1030.56
2018-04-19T06:15:31.278Z,1030.55
2018-04-19T06:16:31.263Z,1030.53
2018-04-19T06:17:31.247Z,1030.54
2018-04-19T06:18:31.380Z,1030.54
2018-04-19T06:19:31.271Z,1030.53
2018-04-19T06:20:31.273Z,1030.55
2018-04-19T06:21:31.252Z,1030.52
2018-04-19T06:22:31.404Z,1030.51
2018-04-19T06:23:31.277Z,1030.49
2018-04-19T06:24:31.273Z,1030.48
2018-04-19T06:25:31.275Z,1030.5
2018-04-19T06:26:31.286Z,1030.49
2018-04-19T06:27:31.298Z,1030.48
2018-04-19T06:28:31.255Z,1030.47
2018-04-19T06:29:31.273Z,1030.48
2018-04-19T06:30:31.260Z,1030.42
2018-04-19T06:31:31.259Z,1030.43
2018-04-19T06:32:31.252Z,1030.4
2018-04-19T06:33:31.276Z,1030.44
2018-04-19T06:34:31.257Z,1030.44
2018-04-19T06:35:31.270Z,1030.44
2018-04-19T06:36:31.257Z,1030.41
2018-04-19T06:37:31.247Z,1030.42
2018-04-19T06:38:31.283Z,1030.38
2018-04-19T06:39:31.251Z,1030.37
2018-04-19T06:40:31.266Z,1030.39
2018-04-19T06:41:31.354Z,1030.37
2018-04-19T06:42:31.286Z,1030.37
2018-04-19T06:43:31.253Z,1030.37
2018-04-19T06:44:31.268Z,1030.36
2018-04-19T06:45:31.243Z,1030.34
2018-04-19T06:46:31.250Z,1030.35
2018-04-19T06:47:31.269Z,1030.37
2018-04-19T06:48:31.256Z,1030.4
2018-04-19T06:49:31.246Z,1030.34
2018-04-19T06:50:31.246Z,1030.39
2018-04-19T06:51:31.248Z,1030.4
2018-04-19T06:52:31.263Z,1030.39
2018-04-19T06:53:31.474Z,1030.36
2018-04-19T06:54:31.269Z,1030.36
2018-04-19T06:55:31.254Z,1030.36
2018-04-19T06:56:31.247Z,1030.36
2018-04-19T06:57:31.248Z,1030.37
2018-04-19T06:58:31.256Z,1030.34
2018-04-19T06:59:31.237Z,1030.36
2018-04-19T07:00:31.250Z,1030.36
2018-04-19T07:01:31.244Z,1030.34
2018-04-19T07:02:31.267Z,1030.35
2018-04-19T07:03:31.234Z,1030.33
2018-04-19T07:04:31.253Z,1030.31
2018-04-19T07:05:31.339Z,1030.3
2018-04-19T07:06:31.284Z,1030.31
2018-04-19T07:07:31.271Z,1030.3
2018-04-19T07:08:31.248Z,1030.3
2018-04-19T07:09:31.230Z,1030.31
2018-04-19T07:10:31.271Z,1030.32
2018-04-19T07:11:31.249Z,1030.31
2018-04-19T07:12:31.233Z,1030.34
2018-04-19T07:13:31.235Z,1030.3
2018-04-19T07:14:31.454Z,1030.3
2018-04-19T07:15:31.226Z,1030.29
2018-04-19T07:16:31.407Z,1030.32
2018-04-19T07:17:31.276Z,1030.32
2018-04-19T07:18:31.245Z,1030.3
2018-04-19T07:19:31.237Z,1030.29
2018-04-19T07:20:31.259Z,1030.29
2018-04-19T07:21:31.248Z,1030.27
2018-04-19T07:22:31.230Z,1030.31
2018-04-19T07:23:31.253Z,1030.31
2018-04-19T07:24:31.235Z,1030.32
2018-04-19T07:25:31.272Z,1030.28
2018-04-19T07:26:31.288Z,1030.28
2018-04-19T07:27:31.222Z,1030.27
2018-04-19T07:28:31.218Z,1030.26
2018-04-19T07:29:31.228Z,1030.28
2018-04-19T07:30:31.246Z,1030.3
2018-04-19T07:31:31.269Z,1030.32
2018-04-19T07:32:31.287Z,1030.31
2018-04-19T07:33:31.223Z,1030.29
2018-04-19T07:34:31.332Z,1030.26
2018-04-19T07:35:31.233Z,1030.28
2018-04-19T07:36:31.259Z,1030.27
2018-04-19T07:37:31.277Z,1030.25
2018-04-19T07:38:31.248Z,1030.19
2018-04-19T07:39:31.225Z,1030.25
2018-04-19T07:40:31.216Z,1030.29
2018-04-19T07:41:31.209Z,1030.25
2018-04-19T07:42:31.244Z,1030.22
2018-04-19T07:43:31.404Z,1030.23
2018-04-19T07:44:31.243Z,1030.24
2018-04-19T07:45:31.238Z,1030.21
2018-04-19T07:46:31.216Z,1030.2
2018-04-19T07:47:31.214Z,1030.18
2018-04-19T07:48:31.224Z,1030.23
2018-04-19T07:49:31.227Z,1030.18
2018-04-19T07:50:31.227Z,1030.2
2018-04-19T07:51:31.399Z,1030.2
2018-04-19T07:52:31.237Z,1030.19
2018-04-19T07:53:31.209Z,1030.18
2018-04-19T07:54:31.221Z,1030.15
2018-04-19T07:55:31.215Z,1030.17
2018-04-19T07:56:31.203Z,1030.15
2018-04-19T07:57:31.266Z,1030.14
2018-04-19T07:58:31.211Z,1030.14
2018-04-19T07:59:31.233Z,1030.14
2018-04-19T08:00:31.210Z,1030.13
2018-04-19T08:01:31.213Z,1030.11
2018-04-19T08:02:31.217Z,1030.12
2018-04-19T08:03:31.249Z,1030.12
2018-04-19T08:04:31.213Z,1030.12
2018-04-19T08:05:31.365Z,1030.12
2018-04-19T08:06:31.202Z,1030.12
2018-04-19T08:07:31.211Z,1030.12
2018-04-19T08:08:31.240Z,1030.13
2018-04-19T08:09:31.251Z,1030.07
2018-04-19T08:10:31.256Z,1030.14
2018-04-19T08:11:31.278Z,1030.1
2018-04-19T08:12:31.199Z,1030.12
2018-04-19T08:13:31.208Z,1030.13
2018-04-19T08:14:31.228Z,1030.13
2018-04-19T08:15:31.202Z,1030.13
2018-04-19T08:16:31.209Z,1030.12
2018-04-19T08:17:31.211Z,1030.12
2018-04-19T08:18:31.196Z,1030.12
2018-04-19T08:19:31.214Z,1030.08
2018-04-19T08:20:31.211Z,1030.1
2018-04-19T08:21:31.194Z,1030.08
2018-04-19T08:22:31.198Z,1030.09
2018-04-19T08:23:31.249Z,1030.08
2018-04-19T08:24:31.299Z,1030.12
2018-04-19T08:25:31.202Z,1030.12
2018-04-19T08:26:31.210Z,1030.08
2018-04-19T08:27:31.196Z,1030.06
2018-04-19T08:28:31.192Z,1030.08
2018-04-19T08:29:31.244Z,1030.08
2018-04-19T08:30:31.198Z,1030.1
2018-04-19T08:31:31.198Z,1030.12
2018-04-19T08:32:31.238Z,1030.07
2018-04-19T08:33:31.250Z,1030.05
2018-04-19T08:34:31.190Z,1030.05
2018-04-19T08:35:31.221Z,1030.07
2018-04-19T08:36:31.304Z,1030.08
2018-04-19T08:37:31.219Z,1030.1
2018-04-19T08:38:31.221Z,1030.08
2018-04-19T08:39:31.203Z,1030.06
2018-04-19T08:40:31.226Z,1030.04
2018-04-19T08:41:31.203Z,1030
2018-04-19T08:42:31.246Z,1030.02
2018-04-19T08:43:31.273Z,1030.02
2018-04-19T08:44:31.215Z,1030.03
2018-04-19T08:45:31.229Z,1030.02
2018-04-19T08:46:31.247Z,1030.03
2018-04-19T08:47:31.362Z,1029.99
2018-04-19T08:48:31.211Z,1030.01
2018-04-19T08:49:31.182Z,1030.01
2018-04-19T08:50:31.190Z,1030
2018-04-19T08:51:31.205Z,1030.01
2018-04-19T08:52:31.221Z,1029.97
2018-04-19T08:53:31.238Z,1029.99
2018-04-19T08:54:31.195Z,1030.01
2018-04-19T08:55:31.196Z,1030
2018-04-19T08:56:31.183Z,1029.95
2018-04-19T08:57:31.217Z,1029.96
2018-04-19T08:58:31.358Z,1029.95
2018-04-19T08:59:31.200Z,1029.93
2018-04-19T09:00:31.189Z,1029.92
2018-04-19T09:01:31.191Z,1029.93
2018-04-19T09:02:31.197Z,1029.94
2018-04-19T09:03:31.235Z,1029.93
2018-04-19T09:04:31.198Z,1029.92
2018-04-19T09:05:31.186Z,1029.92
2018-04-19T09:06:31.194Z,1029.9
2018-04-19T09:07:31.173Z,1029.91
2018-04-19T09:08:31.237Z,1029.93
2018-04-19T09:09:31.180Z,1029.89
2018-04-19T09:10:31.176Z,1029.88
2018-04-19T09:11:31.222Z,1029.9
2018-04-19T09:12:31.206Z,1029.94
2018-04-19T09:13:31.317Z,1029.88
2018-04-19T09:14:31.181Z,1029.93
2018-04-19T09:15:31.173Z,1029.88
2018-04-19T09:16:31.290Z,1029.92
2018-04-19T09:17:31.206Z,1029.94
2018-04-19T09:18:31.177Z,1029.91
2018-04-19T09:19:31.287Z,1029.88
2018-04-19T09:20:31.181Z,1029.82
2018-04-19T09:21:31.197Z,1029.8
2018-04-19T09:22:31.180Z,1029.81
2018-04-19T09:23:31.163Z,1029.85
2018-04-19T09:24:31.184Z,1029.86
2018-04-19T09:25:31.270Z,1029.87
2018-04-19T09:26:31.168Z,1029.84
2018-04-19T09:27:31.247Z,1029.81
2018-04-19T09:28:31.182Z,1029.83
2018-04-19T09:29:31.291Z,1029.75
2018-04-19T09:30:31.454Z,1029.81
2018-04-19T09:31:31.177Z,1029.76
2018-04-19T09:32:31.172Z,1029.79
2018-04-19T09:33:31.175Z,1029.76
2018-04-19T09:34:31.174Z,1029.78
2018-04-19T09:35:31.198Z,1029.71
2018-04-19T09:36:31.168Z,1029.76
2018-04-19T09:37:31.183Z,1029.73
2018-04-19T09:38:31.187Z,1029.79
2018-04-19T09:39:31.266Z,1029.76
2018-04-19T09:40:31.187Z,1029.79
2018-04-19T09:41:31.180Z,1029.78
2018-04-19T09:42:31.167Z,1029.74
2018-04-19T09:43:31.169Z,1029.83
2018-04-19T09:44:31.153Z,1029.78
2018-04-19T09:45:31.162Z,1029.79
2018-04-19T09:46:31.289Z,1029.78
2018-04-19T09:47:31.155Z,1029.8
2018-04-19T09:48:31.308Z,1029.72
2018-04-19T09:49:31.224Z,1029.74
2018-04-19T09:50:31.164Z,1029.74
2018-04-19T09:51:31.194Z,1029.67
2018-04-19T09:52:31.161Z,1029.71
2018-04-19T09:53:31.153Z,1029.69
2018-04-19T09:54:31.226Z,1029.67
2018-04-19T09:55:31.159Z,1029.69
2018-04-19T09:56:31.174Z,1029.68
2018-04-19T09:57:31.145Z,1029.67
2018-04-19T09:58:31.249Z,1029.62
2018-04-19T09:59:31.186Z,1029.66
2018-04-19T10:00:31.183Z,1029.62
2018-04-19T10:01:31.148Z,1029.65
2018-04-19T10:02:31.180Z,1029.64
2018-04-19T10:03:31.158Z,1029.61
2018-04-19T10:04:31.154Z,1029.6
2018-04-19T10:05:31.144Z,1029.64
2018-04-19T10:06:31.151Z,1029.6
2018-04-19T10:07:31.202Z,1029.57
2018-04-19T10:08:31.185Z,1029.6
2018-04-19T10:09:31.152Z,1029.57
2018-04-19T10:10:31.221Z,1029.52
2018-04-19T10:11:31.149Z,1029.57
2018-04-19T10:12:31.164Z,1029.53
2018-04-19T10:13:31.157Z,1029.54
2018-04-19T10:14:31.149Z,1029.51
2018-04-19T10:15:31.152Z,1029.49
2018-04-19T10:16:31.149Z,1029.51
2018-04-19T10:17:31.216Z,1029.5
2018-04-19T10:18:31.165Z,1029.5
2018-04-19T10:19:31.137Z,1029.49
2018-04-19T10:20:31.170Z,1029.49
2018-04-19T10:21:31.944Z,1029.51
2018-04-19T10:22:31.176Z,1029.49
2018-04-19T10:23:31.257Z,1029.51
2018-04-19T10:24:31.163Z,1029.5
2018-04-19T10:25:31.156Z,1029.46
2018-04-19T10:26:31.139Z,1029.42
2018-04-19T10:27:31.196Z,1029.46
2018-04-19T10:28:31.188Z,1029.5
2018-04-19T10:29:31.141Z,1029.44
2018-04-19T10:30:31.140Z,1029.43
2018-04-19T10:31:31.893Z,1029.44
2018-04-19T10:32:31.168Z,1029.42
2018-04-19T10:33:31.149Z,1029.4
2018-04-19T10:34:31.180Z,1029.4
2018-04-19T10:35:31.155Z,1029.36
2018-04-19T10:36:31.135Z,1029.36
2018-04-19T10:37:31.161Z,1029.39
2018-04-19T10:38:31.185Z,1029.42
2018-04-19T10:39:31.156Z,1029.4
2018-04-19T10:40:31.187Z,1029.37
2018-04-19T10:41:31.150Z,1029.34
2018-04-19T10:42:31.289Z,1029.36
2018-04-19T10:43:31.177Z,1029.33
2018-04-19T10:44:31.141Z,1029.32
2018-04-19T10:45:31.188Z,1029.28
2018-04-19T10:46:31.144Z,1029.28
2018-04-19T10:47:31.351Z,1029.28
2018-04-19T10:48:31.127Z,1029.26
2018-04-19T10:49:31.131Z,1029.24
2018-04-19T10:50:31.157Z,1029.27
2018-04-19T10:51:31.169Z,1029.24
2018-04-19T10:52:31.227Z,1029.2
2018-04-19T10:53:31.135Z,1029.23
2018-04-19T10:54:31.290Z,1029.2
2018-04-19T10:55:31.123Z,1029.24
2018-04-19T10:56:31.141Z,1029.17
2018-04-19T10:57:31.922Z,1029.19
2018-04-19T10:58:31.137Z,1029.15
2018-04-19T10:59:31.139Z,1029.12
2018-04-19T11:00:31.208Z,1029.08
2018-04-19T11:01:31.128Z,1029.09
2018-04-19T11:02:31.329Z,1029.05
2018-04-19T11:03:31.159Z,1029.06
2018-04-19T11:04:31.141Z,1029.06
2018-04-19T11:05:31.137Z,1029.05
2018-04-19T11:06:31.137Z,1029.01
2018-04-19T11:07:31.253Z,1029.04
2018-04-19T11:08:31.194Z,1029.01
2018-04-19T11:09:31.126Z,1029
2018-04-19T11:10:31.174Z,1029
2018-04-19T11:11:31.120Z,1028.95
2018-04-19T11:12:31.152Z,1029.01
2018-04-19T11:13:31.206Z,1028.94
2018-04-19T11:14:31.854Z,1028.95
2018-04-19T11:15:32.154Z,1028.87
2018-04-19T11:16:31.128Z,1028.89
2018-04-19T11:17:31.969Z,1028.92
2018-04-19T11:18:35.059Z,1028.9
2018-04-19T11:19:31.150Z,1028.87
2018-04-19T11:20:37.243Z,1028.89
2018-04-19T11:21:32.416Z,1028.84
2018-04-19T11:22:31.483Z,1028.83
2018-04-19T11:23:33.383Z,1028.82
2018-04-19T11:24:31.383Z,1028.82
2018-04-19T11:25:32.023Z,1028.79
2018-04-19T11:26:31.376Z,1028.79
2018-04-19T11:27:31.343Z,1028.77
2018-04-19T11:28:32.974Z,1028.79
2018-04-19T11:29:33.264Z,1028.78
2018-04-19T11:30:31.346Z,1028.75
2018-04-19T11:31:31.459Z,1028.7
2018-04-19T11:32:31.676Z,1028.73
2018-04-19T11:33:33.669Z,1028.76
2018-04-19T11:34:36.602Z,1028.7
2018-04-19T11:35:33.804Z,1028.73
2018-04-19T11:36:38.836Z,1028.69
2018-04-19T11:37:32.204Z,1028.64
2018-04-19T11:38:33.116Z,1028.63
2018-04-19T11:39:35.549Z,1028.59
2018-04-19T11:40:31.152Z,1028.56
2018-04-19T11:41:34.639Z,1028.55
2018-04-19T11:42:32.415Z,1028.5
2018-04-19T11:43:31.668Z,1028.55
2018-04-19T11:44:34.964Z,1028.51
2018-04-19T11:45:33.543Z,1028.51
2018-04-19T11:46:35.610Z,1028.49
2018-04-19T11:47:31.694Z,1028.49
2018-04-19T11:48:32.801Z,1028.47
2018-04-19T11:49:32.096Z,1028.48
2018-04-19T11:50:32.746Z,1028.44
2018-04-19T11:51:32.822Z,1028.47
2018-04-19T11:52:32.633Z,1028.47
2018-04-19T11:53:32.239Z,1028.43
2018-04-19T11:54:32.325Z,1028.35
2018-04-19T11:55:32.071Z,1028.35
2018-04-19T11:56:33.558Z,1028.3
2018-04-19T11:57:32.080Z,1028.33
2018-04-19T11:58:31.333Z,1028.3
2018-04-19T11:59:31.139Z,1028.31
2018-04-19T12:00:32.990Z,1028.33
2018-04-19T12:01:32.065Z,1028.32
2018-04-19T12:02:31.426Z,1028.24
2018-04-19T12:03:33.398Z,1028.2
2018-04-19T12:04:33.029Z,1028.24
2018-04-19T12:05:31.651Z,1028.23
2018-04-19T12:06:31.957Z,1028.26
2018-04-19T12:07:31.268Z,1028.22
2018-04-19T12:08:31.267Z,1028.22
2018-04-19T12:09:31.456Z,1028.2